createdAt,value
2023-04-14T00:02:13.436Z,4.97
2023-04-14T00:04:41.678Z,4.37
2023-04-14T00:07:10.132Z,3.77
2023-04-14T00:09:38.881Z,3.57
2023-04-14T00:12:07.385Z,4.33
2023-04-14T00:14:35.964Z,5.83
2023-04-14T00:17:05.562Z,6.50
2023-04-14T00:19:34.826Z,3.87
2023-04-14T00:22:02.631Z,3.57
2023-04-14T00:24:32.720Z,5.33
2023-04-14T00:27:01.453Z,3.87
2023-04-14T00:29:31.141Z,3.90
2023-04-14T00:31:59.127Z,3.47
2023-04-14T00:34:27.393Z,3.10
2023-04-14T00:36:56.941Z,3.77
2023-04-14T00:39:25.711Z,5.37
2023-04-14T00:41:53.559Z,4.17
2023-04-14T00:44:22.936Z,2.87
2023-04-14T00:46:51.601Z,4.40
2023-04-14T00:49:19.969Z,3.30
2023-04-14T00:51:49.304Z,4.83
2023-04-14T00:54:20.402Z,3.40
2023-04-14T00:56:48.740Z,5.73
2023-04-14T00:59:19.592Z,4.10
2023-04-14T01:01:49.046Z,6.37
2023-04-14T01:04:21.692Z,2.97
2023-04-14T01:06:50.060Z,4.00
2023-04-14T01:09:20.376Z,4.33
2023-04-14T01:11:58.521Z,4.00
2023-04-14T01:14:37.316Z,3.90
2023-04-14T01:17:15.271Z,3.43
2023-04-14T01:20:02.249Z,6.87
2023-04-14T01:22:33.478Z,4.20
2023-04-14T01:25:31.335Z,5.43
2023-04-14T01:28:15.019Z,5.07
2023-04-14T01:30:58.660Z,6.77
2023-04-14T01:33:35.332Z,3.70
2023-04-14T01:36:08.807Z,3.13
2023-04-14T01:38:43.674Z,7.20
2023-04-14T01:41:16.948Z,3.33
2023-04-14T01:43:47.819Z,3.77
2023-04-14T01:46:19.989Z,3.97
2023-04-14T01:48:50.787Z,4.60
2023-04-14T01:51:23.462Z,3.60
2023-04-14T01:53:56.078Z,4.93
2023-04-14T01:56:25.100Z,3.10
2023-04-14T01:58:57.354Z,12.10
2023-04-14T02:01:29.088Z,3.50
2023-04-14T02:04:02.529Z,3.73
2023-04-14T02:06:32.542Z,3.20
2023-04-14T02:09:03.688Z,4.07
2023-04-14T02:11:34.223Z,5.60
2023-04-14T02:14:03.077Z,3.33
2023-04-14T02:16:31.811Z,3.97
2023-04-14T02:19:03.255Z,3.73
2023-04-14T02:21:34.425Z,5.43
2023-04-14T02:24:03.773Z,6.60
2023-04-14T02:26:36.917Z,4.57
2023-04-14T02:29:11.957Z,4.00
2023-04-14T02:31:44.873Z,4.43
2023-04-14T02:34:24.905Z,5.13
2023-04-14T02:36:56.360Z,6.10
2023-04-14T02:39:31.713Z,6.23
2023-04-14T02:42:05.955Z,10.87
2023-04-14T02:44:39.939Z,5.00
2023-04-14T02:47:11.902Z,9.13
2023-04-14T02:49:48.784Z,4.17
2023-04-14T02:52:24.729Z,9.13
2023-04-14T02:54:57.410Z,5.10
2023-04-14T02:57:29.993Z,6.63
2023-04-14T03:00:00.050Z,4.23
2023-04-14T03:02:42.428Z,18.87
2023-04-14T03:05:13.544Z,6.13
2023-04-14T03:07:54.278Z,11.97
2023-04-14T03:10:26.238Z,3.23
2023-04-14T03:12:59.847Z,3.47
2023-04-14T03:15:33.477Z,6.80
2023-04-14T03:18:05.012Z,19.50
2023-04-14T03:20:39.107Z,5.03
2023-04-14T03:23:12.124Z,6.73
2023-04-14T03:25:48.281Z,6.30
2023-04-14T03:28:27.614Z,24.83
2023-04-14T03:31:01.525Z,3.20
2023-04-14T03:33:38.668Z,4.70
2023-04-14T03:36:13.128Z,3.23
2023-04-14T03:38:43.492Z,5.17
2023-04-14T03:41:15.046Z,6.07
2023-04-14T03:43:44.180Z,7.50
2023-04-14T03:46:15.912Z,3.07
2023-04-14T03:48:47.611Z,4.40
2023-04-14T03:51:22.245Z,10.43
2023-04-14T03:53:51.983Z,5.50
2023-04-14T03:56:23.536Z,2.40
2023-04-14T03:58:55.315Z,8.00
2023-04-14T04:01:27.197Z,5.90
2023-04-14T04:03:56.525Z,4.40
2023-04-14T04:06:28.369Z,4.20
2023-04-14T04:08:59.140Z,3.67
2023-04-14T04:11:28.909Z,3.70
2023-04-14T04:14:00.228Z,6.70
2023-04-14T04:16:30.774Z,3.60
2023-04-14T04:19:00.998Z,6.90
2023-04-14T04:21:35.897Z,5.03
2023-04-14T04:24:07.290Z,4.63
2023-04-14T04:26:36.607Z,7.07
2023-04-14T04:29:08.309Z,5.27
2023-04-14T04:31:36.732Z,6.40
2023-04-14T04:34:06.978Z,4.17
2023-04-14T04:36:41.170Z,4.50
2023-04-14T04:39:09.605Z,8.30
2023-04-14T04:41:41.607Z,8.27
2023-04-14T04:44:09.733Z,3.27
2023-04-14T04:46:49.683Z,4.10
2023-04-14T04:49:18.526Z,4.63
2023-04-14T04:51:48.820Z,5.57
2023-04-14T04:54:19.369Z,4.47
2023-04-14T04:56:50.388Z,5.87
2023-04-14T04:59:18.336Z,15.13
2023-04-14T05:01:47.267Z,7.70
2023-04-14T05:04:17.799Z,5.50
2023-04-14T05:06:46.059Z,11.20
2023-04-14T05:09:15.904Z,12.87
2023-04-14T05:11:43.794Z,6.90
2023-04-14T05:14:14.806Z,6.80
2023-04-14T05:16:42.737Z,6.87
2023-04-14T05:19:11.497Z,6.80
2023-04-14T05:21:40.079Z,5.87
2023-04-14T05:24:10.455Z,5.73
2023-04-14T05:29:10.730Z,7.77
2023-04-14T05:31:38.831Z,10.30
2023-04-14T05:34:07.011Z,6.50
2023-04-14T05:36:35.299Z,6.57
2023-04-14T05:39:03.775Z,8.17
2023-04-14T05:41:32.139Z,9.97
2023-04-14T05:44:03.672Z,12.40
2023-04-14T05:46:32.899Z,5.40
2023-04-14T05:49:01.600Z,7.03
2023-04-14T05:51:33.111Z,7.60
2023-04-14T05:54:05.278Z,8.63
2023-04-14T05:56:35.540Z,8.47
2023-04-14T05:59:05.059Z,6.50
2023-04-14T06:01:36.405Z,16.00
2023-04-14T06:04:04.878Z,8.33
2023-04-14T06:06:33.579Z,7.80
2023-04-14T06:09:01.778Z,11.70
2023-04-14T06:11:30.082Z,10.27
2023-04-14T06:13:58.363Z,8.07
2023-04-14T06:16:27.734Z,8.03
2023-04-14T06:18:56.035Z,10.13
2023-04-14T06:21:23.895Z,11.27
2023-04-14T06:23:52.069Z,9.00
2023-04-14T06:26:20.645Z,8.10
2023-04-14T06:28:48.856Z,12.67
2023-04-14T06:31:16.846Z,11.57
2023-04-14T06:33:46.150Z,10.50
2023-04-14T06:36:16.939Z,13.03
2023-04-14T06:38:45.471Z,14.47
2023-04-14T06:41:15.854Z,13.13
2023-04-14T06:43:44.104Z,13.20
2023-04-14T06:46:12.701Z,13.53
2023-04-14T06:48:40.765Z,10.33
2023-04-14T06:51:12.402Z,12.00
2023-04-14T06:53:40.881Z,30.73
2023-04-14T06:56:09.365Z,20.37
2023-04-14T06:58:37.287Z,22.30
2023-04-14T07:01:07.262Z,17.73
2023-04-14T07:03:39.785Z,15.40
2023-04-14T07:06:11.992Z,14.27
2023-04-14T07:08:40.759Z,16.53
2023-04-14T07:11:12.132Z,16.23
2023-04-14T07:13:40.785Z,13.67
2023-04-14T07:16:09.659Z,26.60
2023-04-14T07:18:39.151Z,14.80
2023-04-14T07:21:07.807Z,18.33
2023-04-14T07:23:37.468Z,12.97
2023-04-14T07:26:06.046Z,13.27
2023-04-14T07:28:34.065Z,13.33
2023-04-14T07:31:09.272Z,11.50
2023-04-14T07:33:39.855Z,10.70
2023-04-14T07:36:09.357Z,14.00
2023-04-14T07:38:38.865Z,11.63
2023-04-14T07:41:07.772Z,10.23
2023-04-14T07:43:36.317Z,8.80
2023-04-14T07:46:07.313Z,11.50
2023-04-14T07:48:38.696Z,10.40
2023-04-14T07:51:08.806Z,13.70
2023-04-14T07:53:43.345Z,11.53
2023-04-14T07:56:11.516Z,11.93
2023-04-14T07:58:39.498Z,10.03
2023-04-14T08:01:07.770Z,10.40
2023-04-14T08:03:38.161Z,11.00
2023-04-14T08:06:07.360Z,12.43
2023-04-14T08:08:35.286Z,15.10
2023-04-14T08:11:06.990Z,14.07
2023-04-14T08:13:37.299Z,13.77
2023-04-14T08:16:06.119Z,15.77
2023-04-14T08:18:33.982Z,14.40
2023-04-14T08:21:02.338Z,12.90
2023-04-14T08:23:30.270Z,20.90
2023-04-14T08:25:58.201Z,14.87
2023-04-14T08:28:28.969Z,12.87
2023-04-14T08:30:57.356Z,13.70
2023-04-14T08:33:25.201Z,15.53
2023-04-14T08:35:58.693Z,16.03
2023-04-14T08:38:28.511Z,15.70
2023-04-14T08:40:58.509Z,14.40
2023-04-14T08:43:28.522Z,14.27
2023-04-14T08:45:59.021Z,16.00
2023-04-14T08:48:31.085Z,18.40
2023-04-14T08:51:08.000Z,14.27
2023-04-14T08:53:42.964Z,16.70
2023-04-14T08:56:12.864Z,19.67
2023-04-14T08:58:43.141Z,16.97
2023-04-14T09:01:13.284Z,16.00
2023-04-14T09:03:42.253Z,21.03
2023-04-14T09:06:10.798Z,15.07
2023-04-14T09:08:39.363Z,12.83
2023-04-14T09:11:07.693Z,16.73
2023-04-14T09:13:37.003Z,22.17
2023-04-14T09:16:07.824Z,21.07
2023-04-14T09:18:36.692Z,22.23
2023-04-14T09:21:31.019Z,19.50
2023-04-14T09:23:56.102Z,18.17
2023-04-14T09:26:24.952Z,18.93
2023-04-14T09:28:52.848Z,15.10
2023-04-14T09:31:22.415Z,17.27
2023-04-14T09:33:51.198Z,16.13
2023-04-14T09:36:20.804Z,15.40
2023-04-14T09:38:50.119Z,16.53
2023-04-14T09:41:19.519Z,16.80
2023-04-14T09:43:50.348Z,19.43
2023-04-14T09:46:18.616Z,18.47
2023-04-14T09:48:56.485Z,23.07
2023-04-14T09:51:28.381Z,25.53
2023-04-14T09:54:03.568Z,20.17
2023-04-14T09:56:32.596Z,23.70
2023-04-14T09:59:04.657Z,21.33
2023-04-14T10:01:34.695Z,18.07
2023-04-14T10:04:24.108Z,24.50
2023-04-14T10:06:57.848Z,17.20
2023-04-14T10:09:27.568Z,22.37
2023-04-14T10:12:09.971Z,18.40
2023-04-14T10:14:38.788Z,16.80
2023-04-14T10:17:07.103Z,17.50
2023-04-14T10:19:37.694Z,19.07
2023-04-14T10:22:06.669Z,16.40
2023-04-14T10:24:35.141Z,18.93
2023-04-14T10:27:05.320Z,13.83
2023-04-14T10:29:33.437Z,14.53
2023-04-14T10:32:06.395Z,17.40
2023-04-14T10:34:36.596Z,13.93
2023-04-14T10:37:15.064Z,14.33
2023-04-14T10:39:43.773Z,15.33
2023-04-14T10:42:12.214Z,14.63
2023-04-14T10:44:40.408Z,14.80
2023-04-14T10:47:08.974Z,18.17
2023-04-14T10:49:39.435Z,18.53
2023-04-14T10:52:28.001Z,12.53
2023-04-14T10:55:02.469Z,11.80
2023-04-14T10:57:38.751Z,10.00
2023-04-14T11:00:25.362Z,8.67
2023-04-14T11:02:59.065Z,9.57
2023-04-14T11:05:29.627Z,10.90
2023-04-14T11:08:02.992Z,9.43
2023-04-14T11:10:34.948Z,11.00
2023-04-14T11:13:07.553Z,10.27
2023-04-14T11:15:50.697Z,10.03
2023-04-14T11:18:22.192Z,10.97
2023-04-14T11:20:54.279Z,9.47
2023-04-14T11:23:29.467Z,12.40
2023-04-14T11:25:58.602Z,9.20
2023-04-14T11:28:30.745Z,11.53
2023-04-14T11:30:59.946Z,10.97
2023-04-14T11:33:32.602Z,10.40
2023-04-14T11:36:03.517Z,8.07
2023-04-14T11:38:31.930Z,10.30
2023-04-14T11:41:02.670Z,9.93
2023-04-14T11:43:31.586Z,15.03
2023-04-14T11:46:00.680Z,11.60
2023-04-14T11:48:29.979Z,10.17
2023-04-14T11:51:02.652Z,11.33
2023-04-14T11:53:33.149Z,7.77
2023-04-14T11:56:02.674Z,10.23
2023-04-14T11:58:33.893Z,12.20
2023-04-14T12:01:02.325Z,12.53
2023-04-14T12:03:33.077Z,14.93
2023-04-14T12:06:02.116Z,13.00
2023-04-14T12:08:34.854Z,7.03
2023-04-14T12:11:15.662Z,10.80
2023-04-14T12:13:44.985Z,8.67
2023-04-14T12:16:13.442Z,8.63
2023-04-14T12:18:41.986Z,5.70
2023-04-14T12:21:18.085Z,6.03
2023-04-14T12:23:59.422Z,10.20
2023-04-14T12:26:28.757Z,3.60
2023-04-14T12:28:59.437Z,7.13
2023-04-14T12:31:31.165Z,5.10
2023-04-14T12:34:03.542Z,13.97
2023-04-14T12:36:45.258Z,17.73
2023-04-14T12:39:19.623Z,7.23
2023-04-14T12:41:47.819Z,6.63
2023-04-14T12:44:16.695Z,7.97
2023-04-14T12:46:49.873Z,6.47
2023-04-14T12:49:31.376Z,6.00
2023-04-14T12:51:59.233Z,9.80
2023-04-14T12:54:28.458Z,4.60
2023-04-14T12:56:57.124Z,6.47
2023-04-14T12:59:24.956Z,8.70
2023-04-14T13:01:53.011Z,6.27
2023-04-14T13:04:23.610Z,9.50
2023-04-14T13:06:51.507Z,6.13
2023-04-14T13:09:19.731Z,6.50
2023-04-14T13:11:49.524Z,9.70
2023-04-14T13:14:20.007Z,5.57
2023-04-14T13:16:50.845Z,7.20
2023-04-14T13:19:19.390Z,8.70
2023-04-14T13:21:47.460Z,4.20
2023-04-14T13:24:15.597Z,3.83
2023-04-14T13:26:43.862Z,6.60
2023-04-14T13:29:14.273Z,5.87
2023-04-14T13:31:42.333Z,2.80
2023-04-14T13:34:10.752Z,8.50
2023-04-14T13:36:39.097Z,2.20
2023-04-14T13:39:07.216Z,5.07
2023-04-14T13:41:35.372Z,7.97
2023-04-14T13:44:04.484Z,3.83
2023-04-14T13:46:40.965Z,3.10
2023-04-14T13:49:09.539Z,5.13
2023-04-14T13:51:37.476Z,3.40
2023-04-14T13:54:05.598Z,6.00
2023-04-14T13:56:34.202Z,16.77
2023-04-14T13:59:03.990Z,16.80
2023-04-14T14:01:33.936Z,3.10
2023-04-14T14:04:02.549Z,8.17
2023-04-14T14:06:31.265Z,6.53
2023-04-14T14:09:05.970Z,5.67
2023-04-14T14:11:34.572Z,7.07
2023-04-14T14:14:02.883Z,10.60
2023-04-14T14:16:36.750Z,6.20
2023-04-14T14:19:08.525Z,6.47
2023-04-14T14:21:37.034Z,11.20
2023-04-14T14:24:05.086Z,5.10
2023-04-14T14:26:33.283Z,6.50
2023-04-14T14:29:01.529Z,6.30
2023-04-14T14:31:29.553Z,15.93
2023-04-14T14:33:57.437Z,3.60
2023-04-14T14:36:27.549Z,9.37
2023-04-14T14:38:55.498Z,6.83
2023-04-14T14:41:26.522Z,5.87
2023-04-14T14:43:54.452Z,5.17
2023-04-14T14:46:23.302Z,3.43
2023-04-14T14:48:51.569Z,3.93
2023-04-14T14:51:19.828Z,3.87
2023-04-14T14:53:49.365Z,8.37
2023-04-14T14:56:18.400Z,3.17
2023-04-14T14:58:47.634Z,6.47
2023-04-14T15:01:15.925Z,5.30
2023-04-14T15:03:44.853Z,8.83
2023-04-14T15:06:13.555Z,4.60
2023-04-14T15:08:43.907Z,12.77
2023-04-14T15:11:15.689Z,7.63
2023-04-14T15:13:44.172Z,2.43
2023-04-14T15:16:12.404Z,7.10
2023-04-14T15:18:40.412Z,5.00
2023-04-14T15:21:08.455Z,2.90
2023-04-14T15:23:41.148Z,4.87
2023-04-14T15:26:09.459Z,4.30
2023-04-14T15:28:39.386Z,1.90
2023-04-14T15:31:07.743Z,3.93
2023-04-14T15:33:35.989Z,3.20
2023-04-14T15:36:04.157Z,2.90
2023-04-14T15:38:32.853Z,4.73
2023-04-14T15:41:00.894Z,3.30
2023-04-14T15:43:29.700Z,5.03
2023-04-14T15:45:59.217Z,4.27
2023-04-14T15:48:29.382Z,7.87
2023-04-14T15:50:57.298Z,2.60
2023-04-14T15:53:25.425Z,2.17
2023-04-14T15:55:53.334Z,2.47
2023-04-14T15:58:22.271Z,2.77
2023-04-14T16:00:51.444Z,4.70
2023-04-14T16:03:21.277Z,4.00
2023-04-14T16:05:51.453Z,6.93
2023-04-14T16:08:19.392Z,2.60
2023-04-14T16:10:48.843Z,2.97
2023-04-14T16:13:17.614Z,1.33
2023-04-14T16:15:45.838Z,3.43
2023-04-14T16:18:14.353Z,3.60
2023-04-14T16:20:43.869Z,4.87
2023-04-14T16:23:11.710Z,3.47
2023-04-14T16:25:39.922Z,1.93
2023-04-14T16:28:08.189Z,2.07
2023-04-14T16:30:37.231Z,3.10
2023-04-14T16:33:05.921Z,4.20
2023-04-14T16:35:35.350Z,3.67
2023-04-14T16:38:08.502Z,4.10
2023-04-14T16:40:37.272Z,2.67
2023-04-14T16:43:05.810Z,3.43
2023-04-14T16:45:34.908Z,2.00
2023-04-14T16:48:02.921Z,2.07
2023-04-14T16:50:32.117Z,3.33
2023-04-14T16:53:00.372Z,5.70
2023-04-14T16:55:29.705Z,1.70
2023-04-14T16:57:57.617Z,3.00
2023-04-14T17:00:26.604Z,2.50
2023-04-14T17:02:55.046Z,2.40
2023-04-14T17:05:23.496Z,3.50
2023-04-14T17:07:51.678Z,4.17
2023-04-14T17:10:19.594Z,2.07
2023-04-14T17:12:49.222Z,4.13
2023-04-14T17:15:19.716Z,4.20
2023-04-14T17:17:47.625Z,2.30
2023-04-14T17:20:18.153Z,1.90
2023-04-14T17:22:46.872Z,3.47
2023-04-14T17:25:18.342Z,2.10
2023-04-14T17:27:47.004Z,2.60
2023-04-14T17:30:17.479Z,1.90
2023-04-14T17:32:48.736Z,2.93
2023-04-14T17:35:16.837Z,2.40
2023-04-14T17:37:45.023Z,1.47
2023-04-14T17:40:13.745Z,3.30
2023-04-14T17:42:43.185Z,3.43
2023-04-14T17:45:13.820Z,2.20
2023-04-14T17:47:43.624Z,4.47
2023-04-14T17:50:12.009Z,3.50
2023-04-14T17:52:45.653Z,5.33
2023-04-14T17:55:14.653Z,4.50
2023-04-14T17:57:43.179Z,2.60
2023-04-14T18:00:12.721Z,3.57
2023-04-14T18:02:43.653Z,3.03
2023-04-14T18:05:11.972Z,2.03
2023-04-14T18:07:40.579Z,3.00
2023-04-14T18:10:09.432Z,9.10
2023-04-14T18:12:37.319Z,3.90
2023-04-14T18:15:05.793Z,1.80
2023-04-14T18:17:35.981Z,8.10
2023-04-14T18:20:06.615Z,4.93
2023-04-14T18:22:35.729Z,4.77
2023-04-14T18:25:04.092Z,4.03
2023-04-14T18:30:03.232Z,5.27
2023-04-14T18:32:32.175Z,3.47
2023-04-14T18:35:02.366Z,2.50
2023-04-14T18:37:34.970Z,3.80
2023-04-14T18:40:04.143Z,2.23
2023-04-14T18:42:32.696Z,6.07
2023-04-14T18:45:01.068Z,2.30
2023-04-14T18:47:29.801Z,2.53
2023-04-14T18:49:58.535Z,7.80
2023-04-14T18:52:27.189Z,4.80
2023-04-14T18:54:57.593Z,4.60
2023-04-14T18:57:25.573Z,3.40
2023-04-14T18:59:54.814Z,3.37
2023-04-14T19:02:23.212Z,3.40
2023-04-14T19:04:51.417Z,4.40
2023-04-14T19:07:19.382Z,3.63
2023-04-14T19:09:47.886Z,3.37
2023-04-14T19:12:27.620Z,2.70
2023-04-14T19:14:56.635Z,6.97
2023-04-14T19:17:24.708Z,6.83
2023-04-14T19:19:52.651Z,4.23
2023-04-14T19:22:20.930Z,2.87
2023-04-14T19:24:51.624Z,1.97
2023-04-14T19:27:21.009Z,3.77
2023-04-14T19:29:51.731Z,2.10
2023-04-14T19:32:20.280Z,1.73
2023-04-14T19:34:48.413Z,5.10
2023-04-14T19:37:17.021Z,5.50
2023-04-14T19:39:45.281Z,3.53
2023-04-14T19:42:13.383Z,2.87
2023-04-14T19:44:45.252Z,2.50
2023-04-14T19:47:13.759Z,3.63
2023-04-14T19:49:41.975Z,7.50
2023-04-14T19:52:10.075Z,3.50
2023-04-14T19:54:38.786Z,5.30
2023-04-14T19:57:06.820Z,4.67
2023-04-14T19:59:34.990Z,4.23
2023-04-14T20:02:05.663Z,2.13
2023-04-14T20:04:34.206Z,4.90
2023-04-14T20:07:03.359Z,7.10
2023-04-14T20:09:32.723Z,3.00
2023-04-14T20:12:02.083Z,4.20
2023-04-14T20:14:30.284Z,3.90
2023-04-14T20:16:59.425Z,2.37
2023-04-14T20:19:31.183Z,3.20
2023-04-14T20:21:59.346Z,3.23
2023-04-14T20:24:28.133Z,4.60
2023-04-14T20:26:56.152Z,2.77
2023-04-14T20:29:25.325Z,4.57
2023-04-14T20:31:53.765Z,5.97
2023-04-14T20:34:21.888Z,7.27
2023-04-14T20:36:55.896Z,4.33
2023-04-14T20:39:24.635Z,6.03
2023-04-14T20:41:52.773Z,8.47
2023-04-14T20:44:21.491Z,3.37
2023-04-14T20:46:49.579Z,4.03
2023-04-14T20:49:17.735Z,4.00
2023-04-14T20:51:47.064Z,8.60
2023-04-14T20:54:18.449Z,6.03
2023-04-14T20:56:48.038Z,6.93
2023-04-14T20:59:17.547Z,4.00
2023-04-14T21:01:48.248Z,5.87
2023-04-14T21:04:18.776Z,11.43
2023-04-14T21:06:49.273Z,14.90
2023-04-14T21:09:18.853Z,12.07
2023-04-14T21:11:49.595Z,6.67
2023-04-14T21:15:31.115Z,5.63
2023-04-14T21:17:26.193Z,8.03
2023-04-14T21:19:54.390Z,15.60
2023-04-14T21:22:26.533Z,8.70
2023-04-14T21:24:57.182Z,9.13
2023-04-14T21:27:25.372Z,6.20
2023-04-14T21:29:53.692Z,4.97
2023-04-14T21:32:21.868Z,5.60
2023-04-14T21:34:50.017Z,3.27
2023-04-14T21:37:19.319Z,5.13
2023-04-14T21:39:49.415Z,6.90
2023-04-14T21:42:21.490Z,8.73
2023-04-14T21:44:50.938Z,20.30
2023-04-14T21:47:19.134Z,5.37
2023-04-14T21:49:47.018Z,7.07
2023-04-14T21:52:15.101Z,6.97
2023-04-14T21:54:44.289Z,9.93
2023-04-14T21:57:12.189Z,7.10
2023-04-14T21:59:41.824Z,3.37
2023-04-14T22:02:13.728Z,7.90
2023-04-14T22:04:42.420Z,6.93
2023-04-14T22:07:10.658Z,5.23
2023-04-14T22:09:39.305Z,5.63
2023-04-14T22:12:07.271Z,5.77
2023-04-14T22:14:35.983Z,6.63
2023-04-14T22:17:05.820Z,6.90
2023-04-14T22:19:34.077Z,4.60
2023-04-14T22:22:02.260Z,5.43
2023-04-14T22:24:30.566Z,5.73
2023-04-14T22:26:58.821Z,5.47
2023-04-14T22:29:27.196Z,6.00
2023-04-14T22:31:55.015Z,6.27
2023-04-14T22:34:24.954Z,6.43
2023-04-14T22:36:54.457Z,7.20
2023-04-14T22:39:22.379Z,5.33
2023-04-14T22:41:53.096Z,4.03
2023-04-14T22:44:21.281Z,4.57
2023-04-14T22:46:49.106Z,4.87
2023-04-14T22:49:17.181Z,2.70
2023-04-14T22:51:47.249Z,4.10
2023-04-14T22:54:15.301Z,3.33
2023-04-14T22:56:43.357Z,6.67
2023-04-14T22:59:11.717Z,4.83
2023-04-14T23:01:39.805Z,6.50
2023-04-14T23:04:12.035Z,4.10
2023-04-14T23:06:41.021Z,6.40
2023-04-14T23:09:10.800Z,3.67
2023-04-14T23:11:38.806Z,2.37
2023-04-14T23:14:07.098Z,3.87
2023-04-14T23:16:37.358Z,3.63
2023-04-14T23:19:05.990Z,3.30
2023-04-14T23:21:34.493Z,6.63
2023-04-14T23:24:02.420Z,8.63
2023-04-14T23:26:32.245Z,2.40
2023-04-14T23:29:00.399Z,3.33
2023-04-14T23:31:28.553Z,5.70
2023-04-14T23:33:56.710Z,2.40
2023-04-14T23:36:25.367Z,4.13
2023-04-14T23:38:54.535Z,5.23
2023-04-14T23:41:22.443Z,2.70
2023-04-14T23:43:52.879Z,4.57
2023-04-14T23:46:23.240Z,3.40
2023-04-14T23:48:54.206Z,5.87
2023-04-14T23:51:22.397Z,7.90
2023-04-14T23:53:51.816Z,5.23
2023-04-14T23:56:21.042Z,3.63
2023-04-14T23:58:49.292Z,4.00
